KEAN/EAN METAR and TAF weather

Enter ICAO airport designator
Station Type Date Time Source
KEAN METAR 2020/07/07 09:35 UTC NOAA

KEAN 070935Z AUTO 00000KT 10SM SCT011 OVC018 15/08 A2995 RMK AO2 T01530076


Station Type Date Time Source
KEAN Decoded METAR 2020/07/07 09:35 UTC NOAA

Station name not available
Jul 07, 2020 - 05:35 AM EDT / 2020.07.07 0935 UTC
Wind: Calm:0
Visibility: 10 mile(s):0
Sky conditions: overcast
Temperature: 59.5 F (15.3 C)
Dew Point: 45.7 F (7.6 C)
Relative Humidity: 60%
Pressure (altimeter): 29.95 in. Hg (1014 hPa)
ob: KEAN 070935Z AUTO 00000KT 10SM SCT011 OVC018 15/08 A2995 RMK AO2 T01530076
cycle: 9

Station Type Date Time Source
KEAN TAF UTC NOAA

Error!

Example: see airport list